»·PEaware :: N171CP L52-L88

N171CP :: L52-L88

FLIGHT INFORMATION

Flight Status: Arrived
Operator: Privately registered:
United States
More flights under this callsign
Pilot: Dwight D. (26772)
Aircraft: CESSNA 172 SKYHAWK
(C172)
More flights by this aircraft type
Origin: L52 Oceano Co
United States
Destination: L88 New Cuyama
United States
More flights between these airports :: More routes between these airports
Route: DIRECT
File this flight plan on PilotEdge
Remarks: n / a
Altitude:
(Current/Filed)
4,500ft
Speed:
(Current/Filed)
110kts
Departed: 24-Nov-19 04:56 PM
Arrived: 24-Nov-19 05:27 PM
Distance/Time
Traveled:
47nm/0:31
Distance/Time
To Go:
Arrived

Flight Plot

Page will automatically refresh every two minutes.


Map Options




Map Legend


Flown Route
Filed Route
Departure Airport
Arrival Airport
Navaid (VOR, NDB)
Fix

Horizontal Profiles

Position Reports

Time Latitude Longitude Heading Altitude Ground
Speed
24-Nov-19 16:43 35.099595 -120.619034 305 28ft 0kts
24-Nov-19 16:44 35.099596 -120.619035 305 17ft 0kts
24-Nov-19 16:45 35.099596 -120.619035 305 17ft 0kts
24-Nov-19 16:46 35.099596 -120.619035 305 17ft 0kts
24-Nov-19 16:47 35.099596 -120.619035 305 17ft 0kts
24-Nov-19 16:48 35.099596 -120.619035 305 17ft 0kts
24-Nov-19 16:49 35.099596 -120.619035 305 17ft 0kts
24-Nov-19 16:50 35.099596 -120.619035 305 17ft 0kts
24-Nov-19 16:51 35.099596 -120.619035 305 17ft 0kts
24-Nov-19 16:52 35.099596 -120.619035 305 17ft 0kts
24-Nov-19 16:53 35.099596 -120.619035 305 17ft 0kts
24-Nov-19 16:54 35.099596 -120.619035 305 17ft 0kts
24-Nov-19 16:55 35.106580 -120.631085 311 205ft 71kts
24-Nov-19 16:56 35.123385 -120.621328 114 901ft 74kts
24-Nov-19 16:57 35.106207 -120.597133 122 1336ft 107kts
24-Nov-19 16:58 35.090425 -120.568348 122 2029ft 100kts
24-Nov-19 16:59 35.075865 -120.539705 88 2704ft 97kts
24-Nov-19 17:00 35.079243 -120.507921 87 3414ft 96kts
24-Nov-19 17:01 35.075023 -120.475455 98 4100ft 97kts
24-Nov-19 17:02 35.069559 -120.443318 99 4771ft 96kts
24-Nov-19 17:03 35.063565 -120.408436 100 5286ft 104kts
24-Nov-19 17:04 35.059387 -120.370867 83 5519ft 126kts
24-Nov-19 17:05 35.064603 -120.327792 79 5541ft 130kts
24-Nov-19 17:06 35.068456 -120.283238 80 5499ft 133kts
24-Nov-19 17:07 35.072376 -120.238313 82 5499ft 131kts
24-Nov-19 17:08 35.074699 -120.194082 84 5499ft 132kts
24-Nov-19 17:09 35.076152 -120.149136 85 5501ft 131kts
24-Nov-19 17:10 35.077416 -120.104474 85 5500ft 131kts
24-Nov-19 17:11 35.078648 -120.059731 85 5500ft 131kts
24-Nov-19 17:12 35.079877 -120.014975 85 5501ft 131kts
24-Nov-19 17:13 35.071611 -119.974923 128 4243ft 126kts
24-Nov-19 17:14 35.054380 -119.938427 117 2788ft 127kts
24-Nov-19 17:15 35.041476 -119.901385 107 2140ft 116kts
24-Nov-19 17:16 35.028069 -119.866475 128 2512ft 113kts
24-Nov-19 17:17 35.004131 -119.841308 145 2900ft 115kts
24-Nov-19 17:18 34.986401 -119.809965 107 3224ft 116kts
24-Nov-19 17:19 34.977325 -119.776692 106 2631ft 107kts
24-Nov-19 17:20 34.967219 -119.741776 114 2384ft 109kts
24-Nov-19 17:21 34.958856 -119.708318 98 2881ft 115kts
24-Nov-19 17:22 34.949926 -119.671289 111 3252ft 115kts
24-Nov-19 17:23 34.935395 -119.640680 162 2881ft 88kts
24-Nov-19 17:24 34.927072 -119.655527 285 2407ft 67kts
24-Nov-19 17:25 34.932927 -119.676524 290 2359ft 66kts
24-Nov-19 17:26 34.936936 -119.687137 294 2206ft 19kts
24-Nov-19 17:27 34.939560 -119.693472 116 2206ft 3kts
24-Nov-19 17:28 34.939818 -119.693488 202 2206ft 0kts
24-Nov-19 17:29 34.939817 -119.693488 202 2206ft 0kts
24-Nov-19 17:30 34.939817 -119.693488 202 2206ft 0kts
24-Nov-19 17:31 34.939817 -119.693488 202 2206ft 0kts
24-Nov-19 17:32 34.939817 -119.693488 202 2206ft 0kts
24-Nov-19 17:33 34.939817 -119.693488 202 2206ft 0kts
24-Nov-19 17:34 34.939817 -119.693488 202 2206ft 0kts

Navigation Log

Ident Type
Flight plan parsing failed, navigation log unavailable